Terminal Aerodrome Forecast
Issued by NWS

Home | Current Version | Previous Version | Text Only | Print | Product List | Glossary On
Versions: 1 2 3 4 5 6 7 8 9 10 11 12 13 14 15 16 17 18 19 20 21 22 23 24 25
000
FTUS46 KSGX 241431 AAA
TAFSAN
TAF AMD
KSAN 241431Z 2415/2518 31007KT 5SM BR OVC006
     FM241700 29009KT P6SM BKN010
     FM241900 30010KT P6SM SCT012 SCT150
     FM250200 30008KT P6SM OVC009
     FM250800 VRB05KT P6SM OVC007
     FM251600 VRB04KT P6SM BKN010=

USA.gov is the U.S. government's official web portal to all federal, state and local government web resources and services.